Time;durP1;ratioP1;P1;durP2;ratioP2;P2;SDS_P1;SDS_P2;PMS_P1;PMS_P2;Temp;Humidity;BMP_temperature;BMP_pressure;BME280_temperature;BME280_humidity;BME280_pressure;Samples;Min_cycle;Max_cycle;Signal;HPM_P1;HPM_P2
2021/11/02 00:02:04;;;;;;;3.90;2.20;;;9.20;86.50;;;9.42;64.88;96249.22;4980645;28;20066;-46
2021/11/02 00:04:32;;;;;;;3.90;2.17;;;9.30;86.10;;;9.42;64.73;96241.25;4949638;28;20069;-47
2021/11/02 00:07:00;;;;;;;3.57;2.00;;;9.20;85.90;;;9.40;64.69;96243.28;4951732;28;20063;-46
2021/11/02 00:09:34;;;;;;;2.63;1.37;;;9.20;86.10;;;9.38;64.51;96245.28;4949487;29;20061;-49
2021/11/02 00:12:04;;;;;;;2.47;1.70;;;9.10;86.70;;;9.39;64.71;96252.25;4949668;29;20059;-47
2021/11/02 00:14:32;;;;;;;1.83;1.37;;;9.10;86.60;;;9.42;64.47;96251.03;4948823;29;20052;-51
2021/11/02 00:17:16;;;;;;;3.17;1.50;;;9.20;86.40;;;9.43;64.75;96248.19;4950697;28;20055;-47
2021/11/02 00:19:46;;;;;;;2.70;1.40;;;9.30;86.20;;;9.48;64.57;96249.44;4950252;28;20278;-47
2021/11/02 00:22:16;;;;;;;2.73;1.33;;;9.40;86.10;;;9.52;64.78;96250.72;4951678;28;20369;-46
2021/11/02 00:27:25;;;;;;;1.87;1.33;;;9.40;85.90;;;9.56;64.97;96252.00;4950388;28;20069;-47
2021/11/02 00:29:55;;;;;;;2.83;1.20;;;9.40;86.30;;;9.57;64.78;96249.16;4948985;29;20051;-48
2021/11/02 00:32:23;;;;;;;3.30;1.73;;;9.40;86.40;;;9.58;64.79;96248.16;4949160;29;20253;-46
2021/11/02 00:34:52;;;;;;;3.57;1.40;;;9.40;86.40;;;9.58;64.94;96255.31;4948680;29;20047;-47
2021/11/02 00:37:20;;;;;;;3.77;1.43;;;9.50;86.60;;;9.57;64.74;96246.50;4949537;29;20310;-47
2021/11/02 00:39:48;;;;;;;4.13;1.67;;;9.50;86.20;;;9.57;65.17;96243.03;4931960;29;20047;-46
2021/11/02 00:42:16;;;;;;;3.33;1.53;;;9.50;85.90;;;9.59;65.03;96241.81;4949217;29;20083;-50
2021/11/02 00:44:45;;;;;;;2.33;1.30;;;9.60;86.10;;;9.60;65.13;96248.78;4949201;29;20059;-47
2021/11/02 00:47:17;;;;;;;3.93;1.47;;;9.50;86.20;;;9.62;65.02;96243.28;4962806;28;20258;-49
2021/11/02 00:49:45;;;;;;;3.20;1.57;;;9.50;86.40;;;9.62;64.96;96243.28;4949640;29;20230;-47
2021/11/02 00:52:14;;;;;;;3.30;1.33;;;9.60;86.30;;;9.63;65.20;96248.41;4950341;28;20074;-46
2021/11/02 00:54:42;;;;;;;3.03;1.33;;;9.60;86.40;;;9.68;64.98;96239.88;4948211;29;20375;-46
2021/11/02 00:57:09;;;;;;;2.97;2.20;;;9.60;86.30;;;9.69;64.90;96243.34;4964299;28;20051;-49
2021/11/02 00:59:37;;;;;;;3.13;1.77;;;9.60;86.30;;;9.69;65.20;96238.84;4948904;29;20058;-46
2021/11/02 01:02:08;;;;;;;7.53;2.23;;;9.50;86.40;;;9.69;64.79;96241.50;4932955;29;20054;-45
2021/11/02 01:04:37;;;;;;;1.77;1.50;;;9.50;86.60;;;9.68;64.93;96247.03;4949251;29;20057;-49
2021/11/02 01:07:05;;;;;;;1.73;1.40;;;9.50;86.60;;;9.66;64.89;96241.88;4948824;29;20057;-46
2021/11/02 01:09:35;;;;;;;5.07;1.47;;;9.50;86.40;;;9.64;65.23;96254.53;4948367;28;20063;-46
2021/11/02 01:12:03;;;;;;;2.47;1.40;;;9.60;86.10;;;9.59;65.37;96249.78;4949514;29;20057;-46
2021/11/02 01:14:33;;;;;;;4.37;1.57;;;9.50;86.20;;;9.56;65.23;96246.69;4948768;28;20055;-45
2021/11/02 01:17:02;;;;;;;3.40;1.70;;;9.40;87.10;;;9.55;65.18;96245.03;4964478;28;20069;-48
2021/11/02 01:19:30;;;;;;;2.37;1.30;;;9.40;87.70;;;9.57;65.73;96237.69;4947673;28;20067;-46
2021/11/02 01:21:59;;;;;;;2.07;1.47;;;9.40;88.10;;;9.58;65.49;96240.19;4963355;28;20073;-46
2021/11/02 01:24:28;;;;;;;2.03;1.40;;;9.40;88.00;;;9.58;65.78;96232.22;4964406;28;20071;-46
2021/11/02 01:26:56;;;;;;;4.10;1.60;;;9.60;88.10;;;9.60;66.04;96232.84;4949622;29;20054;-48
2021/11/02 01:29:27;;;;;;;3.33;1.40;;;9.50;88.20;;;9.62;65.91;96236.13;4948749;28;20063;-48
2021/11/02 01:31:56;;;;;;;1.30;1.10;;;9.50;88.20;;;9.66;65.62;96234.72;4962863;28;20057;-46
2021/11/02 01:34:32;;;;;;;3.23;1.50;;;9.50;88.40;;;9.67;65.81;96238.19;4962841;28;20051;-47
2021/11/02 01:36:59;;;;;;;3.43;1.10;;;9.50;88.80;;;9.67;66.08;96232.88;4965132;28;20291;-47
2021/11/02 01:39:27;;;;;;;1.87;1.20;;;9.50;88.80;;;9.65;66.26;96238.41;4946022;29;20055;-48
2021/11/02 01:41:55;;;;;;;2.83;2.17;;;9.50;88.60;;;9.68;66.26;96239.88;4947917;28;20073;-45
2021/11/02 01:44:23;;;;;;;2.90;1.40;;;9.60;88.80;;;9.73;66.08;96233.97;4947531;28;20061;-46
2021/11/02 01:46:51;;;;;;;2.10;1.00;;;9.60;88.70;;;9.75;65.63;96231.94;4948780;28;20066;-48
2021/11/02 01:49:20;;;;;;;4.87;1.83;;;9.60;88.50;;;9.78;66.08;96231.56;4949320;29;20059;-47
2021/11/02 01:51:49;;;;;;;2.63;1.03;;;9.60;88.60;;;9.79;66.02;96233.19;4948607;28;20055;-49
2021/11/02 01:54:18;;;;;;;4.03;1.37;;;9.60;88.40;;;9.76;65.70;96238.91;4949244;29;20055;-46
2021/11/02 01:56:49;;;;;;;1.63;1.40;;;9.60;88.40;;;9.76;65.76;96233.59;4946944;28;20062;-51
2021/11/02 01:59:26;;;;;;;3.40;1.33;;;9.70;88.40;;;9.79;65.80;96235.84;4963252;28;20059;-46
2021/11/02 02:02:30;;;;;;;1.87;1.07;;;9.70;88.60;;;9.85;65.64;96237.78;4962008;28;20055;-47
2021/11/02 02:05:18;;;;;;;1.77;0.93;;;9.70;89.00;;;9.88;65.65;96231.25;4980101;28;20246;-48
2021/11/02 02:08:25;;;;;;;4.77;1.53;;;9.70;88.60;;;9.87;65.39;96233.09;4964291;28;20063;-48
2021/11/02 02:11:20;;;;;;;2.47;1.20;;;9.70;88.60;;;9.86;65.55;96234.91;4945955;28;20051;-46
2021/11/02 02:14:18;;;;;;;3.47;1.70;;;9.70;89.00;;;9.85;65.81;96229.81;4947123;29;20051;-49
2021/11/02 02:16:51;;;;;;;2.70;1.50;;;9.70;88.70;;;9.85;65.69;96232.47;4964448;28;20055;-45
2021/11/02 02:20:11;;;;;;;4.13;1.50;;;9.60;88.60;;;9.83;65.83;96224.66;4932057;29;20057;-46
2021/11/02 02:23:30;;;;;;;3.33;1.23;;;9.70;88.70;;;9.84;65.85;96221.00;4947203;29;20054;-49
2021/11/02 02:26:38;;;;;;;4.10;1.57;;;9.70;88.60;;;9.84;65.56;96213.00;4963800;28;20063;-47
2021/11/02 02:29:12;;;;;;;2.93;1.93;;;9.70;88.60;;;9.85;65.55;96212.00;4934096;29;20123;-49
2021/11/02 02:31:44;;;;;;;2.43;1.43;;;9.60;88.40;;;9.82;65.39;96203.59;4948877;28;20051;-46
2021/11/02 02:34:15;;;;;;;3.97;1.30;;;9.50;88.50;;;9.78;65.56;96208.47;4930339;29;20055;-45
2021/11/02 02:36:51;;;;;;;4.07;1.67;;;9.50;88.80;;;9.73;65.73;96205.56;4963614;28;20058;-47
2021/11/02 02:39:22;;;;;;;2.70;1.20;;;9.50;88.60;;;9.71;65.52;96202.25;4932556;29;20058;-49
2021/11/02 02:42:08;;;;;;;1.30;1.20;;;9.50;88.60;;;9.69;65.37;96206.94;4932359;29;20262;-48
2021/11/02 02:44:48;;;;;;;4.87;1.53;;;9.50;88.40;;;9.68;65.68;96204.50;4961986;28;20051;-47
2021/11/02 02:47:20;;;;;;;4.70;1.40;;;9.50;88.40;;;9.66;65.52;96202.84;4931764;29;20066;-47
2021/11/02 02:49:50;;;;;;;3.40;1.77;;;9.40;88.10;;;9.64;65.28;96212.03;4963233;28;20051;-47
2021/11/02 02:52:18;;;;;;;2.17;1.90;;;9.40;88.30;;;9.59;65.77;96211.75;4932170;29;20055;-46
2021/11/02 02:54:55;;;;;;;3.23;1.80;;;9.30;88.50;;;9.56;65.47;96206.84;4944724;28;20055;-46
2021/11/02 02:57:25;;;;;;;3.83;1.60;;;9.30;88.70;;;9.53;65.35;96201.91;4947208;29;20341;-46
2021/11/02 03:00:00;;;;;;;2.37;1.50;;;9.20;88.90;;;9.50;65.51;96202.28;4931449;29;20059;-45
2021/11/02 03:02:32;;;;;;;3.87;1.53;;;9.20;88.70;;;9.46;65.52;96193.88;4947528;28;20058;-49
2021/11/02 03:05:07;;;;;;;2.55;2.05;;;9.30;88.50;;;9.41;65.54;96202.41;4945739;28;20061;-45
2021/11/02 03:07:36;;;;;;;;;;;9.20;88.10;;;9.33;65.46;96196.41;4963071;28;20357;-46
2021/11/02 03:10:07;;;;;;;4.03;1.70;;;9.20;88.20;;;9.36;65.75;96201.31;4946281;29;19926;-45
2021/11/02 03:12:42;;;;;;;2.40;1.43;;;9.10;88.30;;;9.35;65.36;96195.19;4931246;29;20398;-46
2021/11/02 03:15:39;;;;;;;2.43;1.83;;;9.00;88.60;;;9.30;65.39;96197.56;4946765;28;20051;-47
2021/11/02 03:54:35;;;;;;;5.67;2.37;;;8.90;88.90;;;9.13;65.65;96212.09;4932946;29;20059;-47
2021/11/02 05:10:29;;;;;;;4.03;1.80;;;8.30;89.00;;;8.58;65.88;96195.72;4961792;28;20066;-47
2021/11/02 05:53:03;;;;;;;4.00;1.50;;;8.20;88.80;;;8.43;66.07;96201.03;4965182;28;20051;-45
2021/11/02 05:58:16;;;;;;;4.43;1.57;;;8.00;89.30;;;8.28;66.00;96201.00;4962081;28;20269;-47
2021/11/02 06:03:31;;;;;;;2.77;1.50;;;7.70;90.40;;;8.11;65.98;96191.56;4963525;28;20055;-46
2021/11/02 06:29:18;;;;;;;7.27;4.00;;;7.40;92.50;;;7.82;66.46;96203.75;4946490;29;20059;-46
2021/11/02 06:31:58;;;;;;;4.80;3.10;;;7.40;92.30;;;7.80;66.58;96203.94;4947803;28;20063;-47
2021/11/02 06:57:54;;;;;;;4.13;2.47;;;7.60;92.60;;;7.95;66.77;96209.28;4947286;28;20055;-49
2021/11/02 08:45:44;;;;;;;6.77;2.53;;;9.70;87.20;;;9.84;65.36;96238.78;4935976;29;20364;-46
2021/11/02 08:48:12;;;;;;;3.87;1.50;;;9.70;86.80;;;9.83;65.44;96231.84;4949162;28;20049;-48
2021/11/02 08:50:42;;;;;;;2.70;1.60;;;9.70;86.70;;;9.84;65.12;96230.81;4950109;28;20051;-47
2021/11/02 08:53:12;;;;;;;3.63;1.90;;;9.70;86.50;;;9.84;65.37;96233.47;4950427;28;20051;-47
2021/11/02 08:55:44;;;;;;;3.47;1.63;;;9.70;86.60;;;9.85;65.46;96230.63;4948302;29;20057;-46
2021/11/02 08:58:12;;;;;;;3.97;1.60;;;9.70;86.60;;;9.86;65.50;96226.13;4950894;28;20234;-47
2021/11/02 09:00:42;;;;;;;2.23;1.47;;;9.70;86.70;;;9.87;65.13;96225.13;4960835;28;20257;-48
2021/11/02 09:03:34;;;;;;;3.57;1.30;;;9.70;87.60;;;9.86;65.20;96224.28;4967635;28;20047;-47
2021/11/02 09:06:07;;;;;;;3.73;1.33;;;9.70;87.50;;;9.92;65.58;96217.38;4964326;28;20067;-47
2021/11/02 09:08:46;;;;;;;2.10;1.37;;;9.70;88.10;;;9.97;65.60;96227.44;4967575;28;20054;-46
2021/11/02 09:11:15;;;;;;;3.80;1.90;;;9.80;88.00;;;9.97;65.86;96224.78;4963001;28;20058;-46
2021/11/02 09:13:53;;;;;;;2.10;1.30;;;9.80;87.50;;;10.02;65.54;96227.69;4967877;28;20375;-50
2021/11/02 09:16:26;;;;;;;2.43;1.50;;;9.90;87.80;;;10.01;65.21;96224.19;4967293;28;20064;-47
2021/11/02 09:18:55;;;;;;;3.55;1.27;;;9.90;87.10;;;10.03;65.64;96224.03;4964364;28;20057;-46
2021/11/02 09:21:24;;;;;;;6.73;3.07;;;9.90;87.10;;;10.04;65.44;96226.50;4969308;28;20043;-46
2021/11/02 09:23:54;;;;;;;3.33;1.50;;;9.90;87.30;;;10.04;65.13;96223.84;4969245;28;20061;-47
2021/11/02 09:26:24;;;;;;;2.60;1.70;;;9.90;87.40;;;10.03;65.21;96230.16;4967694;28;20057;-50
2021/11/02 09:28:54;;;;;;;4.77;2.00;;;9.90;87.20;;;10.02;65.20;96225.84;4968781;28;20043;-48
2021/11/02 09:31:27;;;;;;;2.60;1.37;;;9.90;87.40;;;10.00;65.19;96227.91;4967356;28;20413;-47
2021/11/02 09:33:55;;;;;;;2.22;1.30;;;9.80;87.30;;;9.96;65.38;96228.44;4967994;28;20051;-48
2021/11/02 09:36:27;;;;;;;3.00;1.60;;;9.70;88.40;;;9.94;65.76;96223.31;4968743;28;20063;-47
2021/11/02 09:39:02;;;;;;;7.73;1.90;;;9.70;88.50;;;9.92;65.50;96232.50;4966745;28;20042;-48
2021/11/02 09:42:15;;;;;;;3.77;1.53;;;9.70;89.00;;;9.81;65.99;96237.34;4967822;28;20049;-47
2021/11/02 09:45:26;;;;;;;3.07;1.40;;;9.60;89.50;;;9.73;66.40;96231.31;4967053;28;20054;-48
2021/11/02 09:48:27;;;;;;;3.90;2.30;;;9.50;90.80;;;9.74;66.02;96243.59;4967218;28;20054;-46
2021/11/02 09:51:29;;;;;;;2.37;1.40;;;9.50;91.80;;;9.73;66.34;96240.13;4967039;28;20368;-47
2021/11/02 09:54:21;;;;;;;4.77;2.40;;;9.50;91.70;;;9.72;66.38;96227.84;4966405;28;20070;-47
2021/11/02 09:57:13;;;;;;;2.87;1.70;;;9.50;92.40;;;9.73;66.88;96233.97;4967674;28;20063;-49
2021/11/02 10:00:07;;;;;;;5.27;2.33;;;9.50;92.30;;;9.73;66.40;96234.81;4966777;28;20071;-47
2021/11/02 10:03:07;;;;;;;2.53;1.90;;;9.40;92.90;;;9.74;66.85;96230.31;4966683;28;20352;-49
2021/11/02 10:05:54;;;;;;;3.73;1.80;;;9.50;93.40;;;9.76;66.88;96237.06;4966361;28;20058;-47
2021/11/02 10:08:42;;;;;;;4.37;1.67;;;9.40;93.20;;;9.76;66.73;96238.91;4967248;28;20065;-50
2021/11/02 10:11:37;;;;;;;2.33;1.33;;;9.50;93.20;;;9.75;66.67;96237.25;4967011;28;20065;-48
2021/11/02 10:14:19;;;;;;;1.57;1.20;;;9.50;93.50;;;9.76;66.82;96236.25;4966596;28;20069;-49
2021/11/02 10:17:26;;;;;;;6.10;1.80;;;9.50;93.90;;;9.76;66.70;96233.59;4966975;28;20126;-50
2021/11/02 10:20:08;;;;;;;2.73;1.80;;;9.60;94.10;;;9.81;67.02;96241.84;4966452;28;20055;-51
2021/11/02 10:23:13;;;;;;;1.70;1.27;;;9.50;94.20;;;9.83;67.22;96242.47;4967629;28;20043;-50
2021/11/02 10:26:13;;;;;;;2.05;1.33;;;9.60;94.60;;;9.84;67.28;96238.78;4967911;28;20065;-49
2021/11/02 10:29:52;;;;;;;2.10;1.43;;;9.60;94.30;;;9.86;67.04;96242.06;4967646;28;20352;-47
2021/11/02 10:32:28;;;;;;;4.67;1.60;;;9.60;94.70;;;9.87;67.16;96235.75;4957996;28;20055;-49
2021/11/02 10:35:36;;;;;;;2.87;1.50;;;9.60;94.50;;;9.89;67.01;96238.19;4966930;28;20337;-49
2021/11/02 10:38:35;;;;;;;3.43;1.73;;;9.70;95.00;;;9.89;67.08;96232.88;4966271;28;20065;-48
2021/11/02 10:41:08;;;;;;;3.37;2.10;;;9.60;95.50;;;9.88;67.60;96231.25;4951070;28;20061;-48
2021/11/02 10:44:20;;;;;;;3.03;1.87;;;9.60;94.10;;;9.86;67.27;96231.44;4953145;28;20340;-47
2021/11/02 10:47:04;;;;;;;4.10;1.53;;;9.70;94.70;;;9.83;67.32;96227.34;4966882;28;20573;-47
2021/11/02 10:50:01;;;;;;;;;;;9.50;94.80;;;9.77;67.66;96229.91;4965241;28;20062;-47
2021/11/02 10:52:36;;;;;;;2.40;1.53;;;9.50;95.00;;;9.76;67.38;96226.44;4966034;28;19937;-46
2021/11/02 10:55:33;;;;;;;2.23;1.63;;;9.50;94.70;;;9.75;68.07;96230.13;4966448;28;20054;-48
2021/11/02 10:58:32;;;;;;;2.90;1.63;;;9.50;94.50;;;9.77;67.61;96220.13;4965426;28;20050;-49
2021/11/02 11:01:07;;;;;;;3.27;2.20;;;9.50;94.30;;;9.80;67.53;96222.38;4965136;28;20059;-48
2021/11/02 11:03:37;;;;;;;4.03;1.60;;;9.60;93.90;;;9.83;67.49;96227.34;4965967;28;20061;-47
2021/11/02 11:06:11;;;;;;;2.27;1.40;;;9.60;94.10;;;9.86;67.87;96231.44;4964673;28;20145;-46
2021/11/02 11:08:42;;;;;;;2.75;1.30;;;9.70;94.10;;;9.89;67.52;96224.91;4964634;28;20059;-47
2021/11/02 11:11:18;;;;;;;4.13;1.30;;;9.70;94.30;;;9.89;67.93;96228.41;4966460;28;20062;-49
2021/11/02 11:13:49;;;;;;;2.63;1.20;;;9.70;93.70;;;9.93;67.51;96224.34;4966516;28;20050;-50
2021/11/02 11:16:21;;;;;;;2.10;1.30;;;9.70;93.80;;;9.99;67.66;96225.41;4967497;28;20058;-47
2021/11/02 11:19:11;;;;;;;1.87;1.30;;;9.80;93.70;;;10.01;67.36;96223.38;4966290;28;20059;-47
2021/11/02 11:21:41;;;;;;;1.30;1.10;;;9.80;93.00;;;10.01;67.59;96226.84;4966238;28;20065;-46
2021/11/02 11:24:42;;;;;;;2.07;1.17;;;9.80;92.90;;;10.04;67.19;96225.66;4965501;28;20059;-48
2021/11/02 11:27:10;;;;;;;1.87;1.30;;;9.80;93.30;;;10.02;67.23;96231.19;4966063;28;20065;-46
2021/11/02 11:29:44;;;;;;;4.77;1.53;;;9.80;93.10;;;10.02;67.62;96227.69;4964873;28;20085;-49
2021/11/02 11:32:14;;;;;;;;;;;9.90;93.00;;;10.02;67.27;96227.69;4967459;28;20059;-47
2021/11/02 11:34:47;;;;;;;3.73;1.87;;;9.90;92.40;;;10.05;67.32;96222.00;4964332;28;19926;-47
2021/11/02 11:37:15;;;;;;;2.17;1.17;;;9.90;91.80;;;10.10;67.15;96221.41;4965813;28;20377;-51
2021/11/02 11:39:44;;;;;;;2.43;2.00;;;10.00;92.00;;;10.14;67.48;96220.84;4965428;28;20069;-48
2021/11/02 11:42:18;;;;;;;9.00;2.43;;;10.00;92.00;;;10.21;67.37;96221.69;4964933;28;20053;-47
2021/11/02 11:44:52;;;;;;;4.80;2.30;;;10.10;92.20;;;10.24;66.98;96217.84;4965664;28;20046;-47
2021/11/02 11:47:24;;;;;;;8.77;3.00;;;10.10;92.40;;;10.29;67.22;96220.72;4964170;28;20058;-47
2021/11/02 11:49:54;;;;;;;3.97;2.13;;;10.10;92.40;;;10.31;67.29;96218.72;4966449;28;20066;-50
2021/11/02 11:52:25;;;;;;;3.00;1.57;;;10.10;92.00;;;10.34;66.83;96214.88;4965754;28;20249;-47
2021/11/02 11:54:56;;;;;;;4.23;1.63;;;10.20;91.30;;;10.34;66.89;96214.88;4968163;28;20062;-50
2021/11/02 11:57:31;;;;;;;3.13;1.90;;;10.20;91.40;;;10.38;67.05;96211.59;4968423;28;20055;-48
2021/11/02 12:00:07;;;;;;;2.63;1.67;;;10.30;91.40;;;10.44;66.67;96197.53;4970529;28;20054;-48
2021/11/02 12:02:46;;;;;;;3.67;1.83;;;10.30;91.30;;;10.49;66.87;96204.09;4971790;28;20046;-46
2021/11/02 12:05:17;;;;;;;1.77;1.33;;;10.40;91.20;;;10.47;67.06;96198.16;4969079;28;20047;-47
2021/11/02 12:08:41;;;;;;;1.73;0.83;;;10.40;90.90;;;10.51;66.09;96194.91;4970852;28;20640;-47
2021/11/02 12:11:15;;;;;;;1.27;1.00;;;10.50;89.80;;;10.54;66.75;96199.00;4969890;28;20261;-48
2021/11/02 12:13:43;;;;;;;;;;;10.50;90.30;;;10.54;66.52;96188.38;4968555;28;20074;-46
2021/11/02 12:16:27;;;;;;;1.40;1.17;;;10.50;89.70;;;10.57;66.44;96201.28;4968541;28;19924;-50
2021/11/02 12:19:04;;;;;;;3.03;1.23;;;10.40;89.80;;;10.52;66.09;96195.72;4968232;28;20071;-50
2021/11/02 12:21:34;;;;;;;1.58;1.17;;;10.40;89.10;;;10.50;66.07;96189.78;4970544;28;20047;-48
2021/11/02 12:24:09;;;;;;;1.42;1.10;;;10.30;90.20;;;10.53;66.38;96192.06;4970961;28;20057;-50
2021/11/02 12:26:49;;;;;;;1.60;1.00;;;10.40;90.10;;;10.56;66.28;96194.31;4968984;28;20055;-46
2021/11/02 12:29:28;;;;;;;2.87;1.70;;;10.50;89.70;;;10.43;66.44;96195.09;4968934;28;20345;-49
2021/11/02 12:32:07;;;;;;;0.60;0.60;;;10.40;90.00;;;10.41;66.16;96195.28;4969261;28;20088;-47
2021/11/02 12:34:53;;;;;;;0.82;0.82;;;10.30;90.20;;;10.46;66.44;96199.19;4968418;28;20050;-50
2021/11/02 12:37:25;;;;;;;3.97;1.60;;;10.40;90.00;;;10.44;66.87;96205.50;4968437;28;20261;-46
2021/11/02 12:39:52;;;;;;;1.67;1.47;;;10.30;90.90;;;10.38;67.68;96203.63;4969777;28;20061;-50
2021/11/02 12:42:38;;;;;;;2.97;2.10;;;10.20;93.50;;;10.42;67.58;96198.75;4970019;28;20073;-47
2021/11/02 12:45:07;;;;;;;2.83;1.63;;;10.20;94.60;;;10.49;67.76;96204.09;4968975;28;20061;-47
2021/11/02 12:47:36;;;;;;;2.13;1.40;;;10.20;94.40;;;10.51;67.38;96202.91;4968180;28;20059;-49
2021/11/02 12:50:07;;;;;;;1.87;1.50;;;10.30;95.00;;;10.60;67.70;96211.53;4967325;28;20055;-48
2021/11/02 12:52:38;;;;;;;2.17;1.50;;;10.40;94.80;;;10.53;68.23;96210.69;4969592;28;20055;-47
2021/11/02 12:55:11;;;;;;;1.50;1.30;;;10.30;95.40;;;10.31;68.87;96213.41;4969731;28;20390;-48
2021/11/02 12:57:48;;;;;;;2.38;1.70;;;10.00;96.30;;;10.42;67.93;96212.84;4969171;28;20333;-49
2021/11/02 13:00:27;;;;;;;2.63;1.80;;;10.10;96.80;;;10.50;68.34;96209.22;4968140;28;20551;-48
2021/11/02 13:03:05;;;;;;;3.00;1.90;;;10.20;96.90;;;10.66;68.54;96201.94;4967637;28;20047;-48
2021/11/02 13:05:38;;;;;;;2.47;1.75;;;10.50;96.40;;;10.76;68.80;96197.06;4967757;28;20253;-47
2021/11/02 13:08:12;;;;;;;1.63;1.50;;;10.60;95.80;;;10.85;68.21;96190.56;4969351;28;20605;-48
2021/11/02 13:10:42;;;;;;;1.30;1.10;;;10.70;95.50;;;10.98;68.24;96198.63;4969853;28;20073;-46
2021/11/02 13:13:14;;;;;;;4.38;2.20;;;10.90;94.10;;;11.08;68.10;96198.25;4968503;28;20062;-48
2021/11/02 13:15:58;;;;;;;1.25;0.90;;;11.00;94.30;;;11.16;67.94;96198.06;4968295;28;20058;-47
2021/11/02 13:18:37;;;;;;;1.05;0.93;;;11.20;91.70;;;11.17;66.23;96199.72;4968705;28;20051;-50
2021/11/02 13:21:29;;;;;;;0.75;0.70;;;11.20;89.80;;;11.25;66.93;96196.03;4968431;28;20058;-49
2021/11/02 13:24:12;;;;;;;2.17;0.88;;;11.30;89.50;;;11.34;66.71;96194.84;4967801;28;20051;-48
2021/11/02 13:26:51;;;;;;;0.85;0.60;;;11.40;90.10;;;11.39;65.60;96200.38;4968354;28;20062;-50
2021/11/02 13:29:25;;;;;;;0.40;0.40;;;11.40;89.30;;;11.40;65.47;96190.56;4967415;28;20119;-46
2021/11/02 13:32:06;;;;;;;0.30;0.30;;;11.40;86.90;;;11.34;63.65;96204.66;4967814;28;20354;-47
2021/11/02 13:34:38;;;;;;;0.50;0.50;;;11.40;84.50;;;11.30;64.46;96184.78;4967080;28;20055;-46
2021/11/02 13:37:14;;;;;;;0.22;0.20;;;11.30;85.50;;;11.18;63.45;96192.53;4967513;28;20395;-47
2021/11/02 13:40:03;;;;;;;0.65;0.50;;;11.20;83.20;;;11.18;63.23;96189.88;4969766;28;20051;-47
2021/11/02 13:42:52;;;;;;;0.30;0.30;;;11.20;83.50;;;11.20;62.70;96190.50;4967029;28;20051;-46
2021/11/02 13:45:23;;;;;;;0.63;0.43;;;11.10;82.60;;;11.19;62.87;96199.53;4967595;28;20058;-47
2021/11/02 13:47:51;;;;;;;0.93;0.40;;;11.10;82.70;;;11.12;62.26;96196.81;4967044;28;20066;-47
2021/11/02 13:50:19;;;;;;;0.20;0.20;;;11.10;82.60;;;11.09;61.82;96194.56;4968202;28;20059;-46
2021/11/02 13:52:52;;;;;;;0.30;0.30;;;11.10;81.80;;;11.17;62.61;96191.72;4968740;28;20059;-46
2021/11/02 13:55:23;;;;;;;0.20;0.20;;;11.20;81.70;;;11.19;61.85;96200.31;4967058;28;20068;-46
2021/11/02 13:57:50;;;;;;;0.63;0.60;;;11.20;80.70;;;11.15;60.11;96193.75;4967084;28;20059;-47
2021/11/02 14:00:18;;;;;;;0.43;0.30;;;11.20;78.30;;;11.26;61.63;96195.00;4968318;28;20447;-47
2021/11/02 14:02:48;;;;;;;0.32;0.32;;;11.30;80.70;;;11.37;61.73;96193.63;4968322;28;20055;-47
2021/11/02 14:05:16;;;;;;;0.68;0.50;;;11.50;80.50;;;11.45;61.62;96195.28;4964766;28;20056;-47
2021/11/02 14:07:44;;;;;;;0.47;0.47;;;11.50;80.50;;;11.43;60.78;96190.94;4967115;28;20051;-46
2021/11/02 14:10:13;;;;;;;0.40;0.40;;;11.50;79.50;;;11.42;60.09;96196.50;4967951;28;20239;-46
2021/11/02 14:12:53;;;;;;;0.20;0.20;;;11.50;79.10;;;11.33;59.41;96195.03;4966712;28;20055;-48
2021/11/02 14:15:31;;;;;;;0.10;0.10;;;11.40;75.50;;;11.28;59.31;96195.63;4967277;28;20396;-50
2021/11/02 14:18:08;;;;;;;0.30;0.28;;;11.30;76.70;;;11.30;59.46;96206.09;4965705;28;20058;-48
2021/11/02 14:20:54;;;;;;;0.30;0.30;;;11.30;78.70;;;11.32;59.78;96212.03;4967134;28;20059;-48
2021/11/02 14:23:31;;;;;;;0.30;0.30;;;11.30;78.20;;;11.30;59.50;96206.94;4969257;28;20046;-47
2021/11/02 14:26:35;;;;;;;0.40;0.30;;;11.30;77.40;;;11.35;60.16;96206.31;4967296;28;20054;-47
2021/11/02 14:29:05;;;;;;;0.80;0.50;;;11.40;77.10;;;11.38;60.21;96216.56;4966678;28;20382;-46
2021/11/02 14:31:40;;;;;;;0.40;0.30;;;11.30;78.60;;;11.37;59.81;96213.06;4967423;28;20289;-48
2021/11/02 14:34:28;;;;;;;0.60;0.60;;;11.40;77.40;;;11.42;59.71;96220.50;4966166;28;20054;-46
2021/11/02 14:37:17;;;;;;;1.70;0.40;;;11.40;78.20;;;11.42;59.20;96220.50;4965315;28;20051;-47
2021/11/02 14:40:04;;;;;;;0.30;0.30;;;11.40;74.80;;;11.30;58.66;96214.94;4967711;28;20063;-47
2021/11/02 14:42:54;;;;;;;1.17;0.35;;;11.30;76.40;;;11.36;59.89;96218.59;4967035;28;20054;-47
2021/11/02 14:45:51;;;;;;;0.87;0.80;;;11.20;77.10;;;11.23;58.92;96217.56;4967902;28;20051;-48
2021/11/02 14:48:25;;;;;;;0.45;0.40;;;11.10;76.00;;;11.31;59.19;96213.88;4966131;28;20051;-50
2021/11/02 14:50:59;;;;;;;;;;;11.20;76.80;;;11.25;58.72;96217.34;4967577;28;20062;-48
2021/11/02 14:53:29;;;;;;;1.13;0.50;;;11.20;74.30;;;11.35;58.78;96214.31;4968180;28;19918;-46
2021/11/02 14:56:09;;;;;;;1.27;0.30;;;11.20;75.20;;;11.40;59.26;96218.03;4966812;28;20054;-46
2021/11/02 14:58:40;;;;;;;0.47;0.43;;;11.30;76.00;;;11.44;58.73;96215.78;4965710;28;20065;-46
2021/11/02 15:01:31;;;;;;;0.30;0.30;;;11.40;74.70;;;11.44;57.19;96213.13;4967426;28;20046;-47
2021/11/02 15:04:20;;;;;;;1.02;0.25;;;11.50;71.10;;;11.40;56.86;96212.69;4966056;28;20058;-48
2021/11/02 15:07:00;;;;;;;1.65;0.55;;;11.40;71.50;;;11.41;55.85;96221.50;4965364;28;20043;-47
2021/11/02 15:09:34;;;;;;;0.25;0.25;;;11.40;71.50;;;11.35;56.70;96230.28;4967233;28;20047;-48
2021/11/02 15:12:06;;;;;;;0.40;0.30;;;11.40;70.30;;;11.38;56.88;96221.88;4966969;28;20054;-46
2021/11/02 15:14:40;;;;;;;3.13;0.63;;;11.40;71.00;;;11.39;56.52;96228.88;4966333;28;20059;-47
2021/11/02 15:17:12;;;;;;;0.63;0.47;;;11.40;71.00;;;11.35;56.66;96230.28;4966553;28;20409;-46
2021/11/02 15:19:43;;;;;;;0.35;0.35;;;11.30;69.80;;;11.25;56.17;96230.69;4966445;28;20053;-48
2021/11/02 15:22:18;;;;;;;1.02;0.50;;;11.30;70.30;;;11.25;56.19;96232.53;4966352;28;20074;-47
2021/11/02 15:25:03;;;;;;;0.90;0.40;;;11.20;69.60;;;11.20;55.39;96230.44;4966771;28;20418;-45
2021/11/02 15:27:37;;;;;;;0.40;0.40;;;11.20;69.70;;;11.20;56.21;96225.94;4966152;28;20064;-46
2021/11/02 15:30:14;;;;;;;0.52;0.30;;;11.20;70.40;;;11.15;56.34;96241.72;4970031;28;20055;-45
2021/11/02 15:32:46;;;;;;;0.50;0.50;;;11.00;70.60;;;11.16;57.09;96238.00;4969734;28;20068;-46
2021/11/02 15:35:21;;;;;;;3.40;0.40;;;11.00;71.50;;;11.13;55.79;96242.94;4970011;28;20069;-47
2021/11/02 15:37:58;;;;;;;2.00;0.47;;;11.10;70.00;;;11.12;56.95;96243.94;4971221;28;20358;-45
2021/11/02 15:40:41;;;;;;;0.30;0.30;;;11.00;70.50;;;11.12;57.07;96234.09;4969762;28;20077;-49
2021/11/02 15:43:13;;;;;;;1.02;0.50;;;11.00;71.40;;;11.11;57.67;96232.47;4970206;28;20065;-47
2021/11/02 15:45:48;;;;;;;1.50;0.70;;;10.90;72.30;;;11.11;57.45;96236.97;4969489;28;20080;-46
2021/11/02 15:48:22;;;;;;;2.83;0.80;;;10.90;72.70;;;11.06;57.54;96242.88;4969758;28;20245;-46
2021/11/02 15:50:54;;;;;;;1.42;0.77;;;10.90;72.80;;;11.04;58.26;96239.59;4969529;28;20341;-48
2021/11/02 15:53:26;;;;;;;1.42;1.17;;;10.90;73.30;;;10.97;58.20;96244.06;4970005;28;20061;-46
2021/11/02 15:56:02;;;;;;;0.55;0.50;;;10.80;73.70;;;10.96;58.30;96250.44;4969960;28;20050;-46
2021/11/02 15:58:34;;;;;;;2.17;0.73;;;10.80;74.20;;;10.95;58.72;96248.78;4969140;28;20057;-46
2021/11/02 16:01:03;;;;;;;1.10;0.57;;;10.80;74.60;;;10.94;58.78;96255.94;4969598;28;20072;-46
2021/11/02 16:03:35;;;;;;;1.42;0.90;;;10.80;75.20;;;10.89;58.99;96253.03;4969456;28;20070;-47
2021/11/02 16:06:10;;;;;;;0.80;0.70;;;10.70;75.60;;;10.82;59.02;96257.53;4970051;28;20257;-49
2021/11/02 16:08:38;;;;;;;1.15;0.57;;;10.60;75.50;;;10.80;59.45;96268.38;4968568;28;20477;-46
2021/11/02 16:11:09;;;;;;;1.27;0.70;;;10.50;76.10;;;10.78;59.68;96270.41;4969679;28;20363;-46
2021/11/02 16:13:39;;;;;;;2.22;0.77;;;10.50;76.20;;;10.71;59.49;96274.88;4969122;28;20065;-47
2021/11/02 16:16:08;;;;;;;3.57;2.13;;;10.50;75.90;;;10.67;59.67;96278.94;4969344;28;20383;-47
2021/11/02 16:18:38;;;;;;;0.65;0.50;;;10.50;76.10;;;10.63;59.62;96291.00;4969168;28;20354;-48
2021/11/02 16:21:08;;;;;;;3.63;3.40;;;10.40;75.80;;;10.54;59.98;96298.28;4968020;28;20854;-49